TJIG/SIG METAR and TAF weather

Enter ICAO airport designator
Station Type Date Time Source
TJIG METAR 2022/12/05 13:55 UTC NOAA

TJIG 051355Z 36010KT 10SM SCT025 27/21 A2988


Station Type Date Time Source
TJIG Decoded METAR 2022/12/05 13:55 UTC NOAA

Station name not available
Dec 05, 2022 - 08:55 AM EST / 2022.12.05 1355 UTC
Wind: from the N (360 degrees) at 12 MPH (10 KT):0
Visibility: 10 mile(s):0
Sky conditions: partly cloudy
Temperature: 80 F (27 C)
Dew Point: 69 F (21 C)
Relative Humidity: 69%
Pressure (altimeter): 29.88 in. Hg (1011 hPa)
ob: TJIG 051355Z 36010KT 10SM SCT025 27/21 A2988
cycle: 14

Station Type Date Time Source
TJIG TAF UTC NOAA

Error!

Example: see airport list